Time;durP1;ratioP1;P1;durP2;ratioP2;P2;SDS_P1;SDS_P2;PMS_P1;PMS_P2;Temp;Humidity;BMP_temperature;BMP_pressure;BME280_temperature;BME280_humidity;BME280_pressure;Samples;Min_cycle;Max_cycle;Signal;HPM_P1;HPM_P2
2022/06/27 00:00:50;;;;;;;2.20;2.08;;;20.80;99.90;;;;;;5055754;28;20176;-38
2022/06/27 00:03:16;;;;;;;2.95;1.63;;;20.80;99.90;;;;;;5072097;28;20187;-39
2022/06/27 00:05:42;;;;;;;5.28;2.10;;;20.90;99.90;;;;;;5055358;28;20214;-37
2022/06/27 00:08:08;;;;;;;4.00;1.88;;;20.80;99.90;;;;;;5089892;28;20184;-39
2022/06/27 00:10:34;;;;;;;5.63;2.13;;;20.80;99.90;;;;;;5055868;28;20572;-38
2022/06/27 00:13:00;;;;;;;3.17;1.50;;;20.70;99.90;;;;;;5072383;28;20200;-39
2022/06/27 00:15:26;;;;;;;4.90;2.10;;;20.50;99.90;;;;;;5071861;28;20296;-38
2022/06/27 00:17:52;;;;;;;4.55;1.75;;;20.40;99.90;;;;;;5056475;28;20257;-38
2022/06/27 00:20:19;;;;;;;2.60;1.70;;;20.30;99.90;;;;;;5071876;28;20212;-37
2022/06/27 00:22:45;;;;;;;3.70;1.88;;;20.20;99.90;;;;;;5094089;28;20261;-38
2022/06/27 00:25:11;;;;;;;2.63;1.50;;;20.10;99.90;;;;;;5094603;28;20310;-37
2022/06/27 00:27:37;;;;;;;2.80;1.33;;;20.00;99.90;;;;;;5076349;28;20259;-38
2022/06/27 00:30:04;;;;;;;2.35;1.33;;;20.00;99.90;;;;;;5055649;28;20201;-38
2022/06/27 00:32:30;;;;;;;3.30;1.58;;;19.90;99.90;;;;;;5055846;28;20173;-39
2022/06/27 00:34:56;;;;;;;5.72;1.60;;;19.90;99.90;;;;;;5073660;28;20294;-38
2022/06/27 00:37:24;;;;;;;7.72;2.60;;;20.00;99.90;;;;;;5059808;28;20173;-38
2022/06/27 00:39:50;;;;;;;3.10;1.33;;;20.00;99.90;;;;;;5075286;28;20201;-37
2022/06/27 00:42:16;;;;;;;4.85;1.40;;;19.90;99.90;;;;;;5055512;28;20177;-39
2022/06/27 00:44:43;;;;;;;3.30;1.30;;;19.90;99.90;;;;;;5038649;28;20181;-38
2022/06/27 00:47:12;;;;;;;1.45;1.33;;;19.70;99.90;;;;;;5073231;28;20181;-37
2022/06/27 00:49:38;;;;;;;3.03;1.27;;;19.40;99.90;;;;;;5051226;28;20295;-38
2022/06/27 00:52:08;;;;;;;3.13;1.20;;;19.30;99.90;;;;;;5075407;28;20185;-37
2022/06/27 00:54:36;;;;;;;2.58;1.10;;;19.20;99.90;;;;;;5055019;28;20212;-36
2022/06/27 00:57:02;;;;;;;1.65;0.98;;;19.20;99.90;;;;;;5072455;28;20174;-37
2022/06/27 00:59:28;;;;;;;2.58;0.90;;;19.20;99.90;;;;;;5074918;28;20295;-37
2022/06/27 01:01:54;;;;;;;3.05;1.02;;;19.20;99.90;;;;;;5058519;28;20244;-37
2022/06/27 01:04:21;;;;;;;2.78;1.00;;;19.40;99.90;;;;;;5055340;28;20748;-37
2022/06/27 01:06:51;;;;;;;1.80;1.13;;;19.40;99.90;;;;;;5075635;28;20279;-38
2022/06/27 01:09:22;;;;;;;0.80;0.80;;;19.50;99.90;;;;;;5058178;28;20205;-37
2022/06/27 01:11:49;;;;;;;2.50;0.80;;;19.50;99.90;;;;;;5075366;28;20212;-38
2022/06/27 01:14:16;;;;;;;1.38;0.88;;;19.60;99.90;;;;;;5092717;28;20208;-39
2022/06/27 01:16:42;;;;;;;1.27;0.88;;;19.60;99.90;;;;;;5075432;28;20181;-38
2022/06/27 01:19:10;;;;;;;2.25;1.20;;;19.70;99.90;;;;;;5074843;28;20197;-37
2022/06/27 01:21:50;;;;;;;2.95;1.00;;;19.70;99.90;;;;;;5058561;28;20172;-37
2022/06/27 01:24:18;;;;;;;1.33;0.93;;;19.80;99.90;;;;;;5073775;28;20176;-37
2022/06/27 01:26:45;;;;;;;1.58;0.88;;;19.80;99.90;;;;;;5058509;28;20264;-38
2022/06/27 01:29:15;;;;;;;2.90;1.10;;;19.90;99.90;;;;;;5037872;28;20258;-38
2022/06/27 01:31:41;;;;;;;1.35;0.90;;;19.80;99.90;;;;;;5054632;28;20185;-38
2022/06/27 01:34:08;;;;;;;2.17;0.90;;;19.80;99.90;;;;;;5073414;28;20196;-37
2022/06/27 01:39:44;;;;;;;1.10;1.00;;;19.80;99.90;;;;;;5092715;28;20316;-38
2022/06/27 01:42:10;;;;;;;1.10;1.00;;;19.80;99.90;;;;;;5058142;28;20244;-38
2022/06/27 01:44:36;;;;;;;1.75;0.93;;;19.80;99.90;;;;;;5093511;28;20172;-38
2022/06/27 01:47:08;;;;;;;2.03;0.90;;;19.90;99.90;;;;;;5074267;28;20177;-38
2022/06/27 01:49:36;;;;;;;1.63;1.20;;;19.90;99.90;;;;;;5090327;28;20247;-37
2022/06/27 01:52:04;;;;;;;1.05;0.82;;;19.90;99.90;;;;;;5058019;28;20230;-37
2022/06/27 01:54:31;;;;;;;1.77;0.90;;;19.90;99.90;;;;;;5053937;28;20201;-36
2022/06/27 01:56:57;;;;;;;2.10;0.98;;;19.90;99.90;;;;;;5054236;28;20182;-38
2022/06/27 01:59:27;;;;;;;4.38;1.15;;;19.80;99.90;;;;;;5071564;28;20201;-35
2022/06/27 02:01:59;;;;;;;2.22;0.90;;;19.80;99.90;;;;;;5074652;28;20177;-35
2022/06/27 02:04:27;;;;;;;1.30;1.02;;;19.80;99.90;;;;;;5073931;28;20259;-39
2022/06/27 02:06:54;;;;;;;1.05;0.88;;;19.70;99.90;;;;;;5054367;28;20182;-36
2022/06/27 02:09:20;;;;;;;2.20;0.82;;;19.80;99.90;;;;;;5053424;28;20337;-36
2022/06/27 02:11:49;;;;;;;1.25;0.98;;;19.70;99.90;;;;;;5074071;28;20267;-36
2022/06/27 02:14:15;;;;;;;0.98;0.75;;;19.70;99.90;;;;;;5073623;28;20239;-36
2022/06/27 02:16:42;;;;;;;1.77;1.17;;;19.70;99.90;;;;;;5053733;28;20173;-37
2022/06/27 02:19:13;;;;;;;1.35;1.10;;;19.60;99.90;;;;;;5037983;28;20246;-36
2022/06/27 02:21:39;;;;;;;1.95;1.08;;;19.70;99.90;;;;;;5075902;28;20206;-38
2022/06/27 02:24:07;;;;;;;1.83;0.88;;;19.60;99.90;;;;;;5073642;28;20185;-36
2022/06/27 02:26:33;;;;;;;1.02;0.95;;;19.60;99.90;;;;;;5089989;28;20208;-36
2022/06/27 02:29:00;;;;;;;2.15;1.08;;;19.50;99.90;;;;;;5057048;28;20243;-36
2022/06/27 02:31:29;;;;;;;2.75;0.90;;;19.50;99.90;;;;;;5073210;28;20188;-36
2022/06/27 02:33:57;;;;;;;2.05;0.88;;;19.50;99.90;;;;;;5073415;28;20200;-35
2022/06/27 02:36:39;;;;;;;1.25;1.00;;;19.50;99.90;;;;;;5073145;28;20177;-36
2022/06/27 02:39:06;;;;;;;1.90;1.00;;;19.40;99.90;;;;;;5073132;28;20203;-37
2022/06/27 02:41:35;;;;;;;1.00;0.93;;;19.40;99.90;;;;;;5073309;28;20168;-36
2022/06/27 02:44:12;;;;;;;1.52;0.93;;;19.40;99.90;;;;;;5072660;28;20183;-36
2022/06/27 02:46:39;;;;;;;1.08;0.90;;;19.40;99.90;;;;;;5073080;28;20208;-38
2022/06/27 02:49:06;;;;;;;3.13;1.08;;;19.40;99.90;;;;;;5056585;28;20212;-36
2022/06/27 02:51:45;;;;;;;4.20;1.20;;;19.30;99.90;;;;;;5056045;28;20209;-36
2022/06/27 02:54:18;;;;;;;2.75;1.15;;;19.30;99.90;;;;;;5072825;28;20219;-36
2022/06/27 02:57:01;;;;;;;1.25;1.10;;;19.30;99.90;;;;;;5072860;28;20176;-38
2022/06/27 02:59:41;;;;;;;1.95;1.10;;;19.30;99.90;;;;;;5056334;28;20192;-36
2022/06/27 03:02:10;;;;;;;2.70;1.50;;;19.20;99.90;;;;;;5073269;28;20176;-38
2022/06/27 03:05:00;;;;;;;2.30;1.15;;;19.10;99.90;;;;;;5066240;28;20193;-36
2022/06/27 03:07:30;;;;;;;1.67;1.13;;;19.10;99.90;;;;;;5056834;28;20227;-36
2022/06/27 03:10:02;;;;;;;1.38;1.08;;;19.10;99.90;;;;;;5072719;28;20223;-38
2022/06/27 03:12:30;;;;;;;1.63;1.30;;;19.10;99.90;;;;;;5055892;28;20176;-38
2022/06/27 03:14:56;;;;;;;1.42;1.15;;;19.00;99.90;;;;;;5072604;28;20265;-36
2022/06/27 03:17:22;;;;;;;1.38;1.20;;;19.00;99.90;;;;;;5055889;28;20172;-35
2022/06/27 03:20:08;;;;;;;1.40;1.20;;;19.00;99.90;;;;;;5090641;28;20204;-35
2022/06/27 03:22:46;;;;;;;2.50;0.90;;;19.00;99.90;;;;;;5057628;28;20226;-36
2022/06/27 03:25:12;;;;;;;1.77;1.10;;;18.90;99.90;;;;;;5055922;28;20184;-35
2022/06/27 03:27:38;;;;;;;1.85;1.20;;;19.00;99.90;;;;;;5072765;28;20177;-35
2022/06/27 03:30:04;;;;;;;3.70;1.23;;;18.90;99.90;;;;;;5072533;28;20219;-36
2022/06/27 03:32:31;;;;;;;1.50;1.20;;;19.00;99.90;;;;;;5056521;28;20180;-37
2022/06/27 03:35:02;;;;;;;2.10;1.38;;;18.90;99.90;;;;;;5056524;28;20201;-36
2022/06/27 03:37:31;;;;;;;2.88;1.20;;;18.90;99.90;;;;;;5072480;28;20180;-36
2022/06/27 03:39:57;;;;;;;2.53;1.38;;;18.90;99.90;;;;;;5072709;28;20214;-35
2022/06/27 03:42:22;;;;;;;2.58;1.60;;;19.00;99.90;;;;;;5072389;28;20177;-35
2022/06/27 03:44:49;;;;;;;2.60;1.40;;;19.00;99.90;;;;;;5072369;28;20184;-37
2022/06/27 03:47:15;;;;;;;1.80;1.20;;;19.00;99.90;;;;;;5072649;28;20183;-37
2022/06/27 03:50:02;;;;;;;2.40;1.25;;;19.00;99.90;;;;;;5074848;28;20219;-37
2022/06/27 03:52:35;;;;;;;1.52;1.33;;;19.00;99.90;;;;;;5056936;28;20191;-36
2022/06/27 03:55:02;;;;;;;3.20;1.20;;;19.10;99.90;;;;;;5071862;28;20207;-36
2022/06/27 03:57:28;;;;;;;1.58;1.20;;;19.10;99.90;;;;;;5093163;28;20184;-35
2022/06/27 03:59:54;;;;;;;3.00;1.30;;;19.00;99.90;;;;;;5076294;28;20188;-36
2022/06/27 04:02:21;;;;;;;2.67;1.27;;;18.90;99.90;;;;;;5059923;28;20192;-40
2022/06/27 04:05:19;;;;;;;2.10;1.20;;;19.00;99.90;;;;;;5072753;28;20261;-35
2022/06/27 04:07:45;;;;;;;3.72;1.50;;;18.90;99.90;;;;;;5076033;28;20199;-35
2022/06/27 04:10:13;;;;;;;2.88;1.20;;;18.90;99.90;;;;;;5058990;28;20695;-36
2022/06/27 04:12:40;;;;;;;1.50;1.20;;;19.00;99.90;;;;;;5076087;28;20214;-35
2022/06/27 04:15:25;;;;;;;1.73;1.20;;;19.00;99.90;;;;;;5094068;28;20215;-35
2022/06/27 04:18:14;;;;;;;2.33;1.50;;;19.00;99.90;;;;;;5064744;28;20200;-35
2022/06/27 04:20:58;;;;;;;1.45;1.35;;;19.10;99.90;;;;;;5078887;28;20180;-35
2022/06/27 04:23:34;;;;;;;3.13;1.50;;;19.10;99.90;;;;;;5075865;28;20174;-36
2022/06/27 04:26:24;;;;;;;2.25;1.27;;;19.00;99.90;;;;;;5085835;28;20189;-36
2022/06/27 04:28:50;;;;;;;3.50;1.40;;;19.10;99.90;;;;;;5054927;28;20228;-39
2022/06/27 04:31:18;;;;;;;1.83;1.30;;;19.10;99.90;;;;;;5072230;28;20201;-36
2022/06/27 04:33:44;;;;;;;3.42;1.58;;;19.10;99.90;;;;;;5075031;28;20176;-36
2022/06/27 04:36:11;;;;;;;1.15;1.10;;;19.10;99.90;;;;;;5075053;28;20185;-35
2022/06/27 04:38:38;;;;;;;1.83;1.25;;;19.10;99.90;;;;;;5075588;28;20204;-36
2022/06/27 04:41:33;;;;;;;1.48;1.25;;;19.20;99.90;;;;;;5071376;28;20172;-36
2022/06/27 04:43:59;;;;;;;1.42;1.33;;;19.30;99.90;;;;;;5075470;28;20222;-36
2022/06/27 04:46:25;;;;;;;2.50;1.38;;;19.20;99.90;;;;;;5055349;28;20201;-38
2022/06/27 04:48:51;;;;;;;2.20;1.10;;;19.20;99.90;;;;;;5072169;28;20216;-36
2022/06/27 04:51:17;;;;;;;2.83;1.25;;;19.30;99.90;;;;;;5058790;28;20198;-36
2022/06/27 04:53:44;;;;;;;5.90;1.55;;;19.30;99.90;;;;;;5058831;28;20172;-36
2022/06/27 04:56:11;;;;;;;1.63;1.17;;;19.30;99.90;;;;;;5058493;28;20180;-35
2022/06/27 04:58:38;;;;;;;2.38;1.30;;;19.30;99.90;;;;;;5058517;28;20193;-35
2022/06/27 05:01:04;;;;;;;1.50;1.27;;;19.40;99.90;;;;;;5059324;28;20268;-38
2022/06/27 05:03:52;;;;;;;2.22;1.15;;;19.50;99.90;;;;;;5055060;28;20248;-39
2022/06/27 05:06:24;;;;;;;2.15;1.15;;;19.60;99.90;;;;;;5060183;28;20177;-37
2022/06/27 05:08:50;;;;;;;5.40;1.60;;;19.60;99.90;;;;;;5075060;28;20192;-39
2022/06/27 05:11:16;;;;;;;2.15;1.30;;;19.70;99.90;;;;;;5054624;28;20186;-38
2022/06/27 05:13:42;;;;;;;4.55;1.42;;;19.70;99.90;;;;;;5038324;28;20177;-41
2022/06/27 05:16:19;;;;;;;3.65;1.20;;;19.60;99.90;;;;;;5073076;28;20176;-39
2022/06/27 05:18:45;;;;;;;2.95;1.40;;;19.60;99.90;;;;;;5060426;28;20204;-38
2022/06/27 05:21:11;;;;;;;3.10;1.40;;;19.70;99.90;;;;;;5074876;28;20187;-37
2022/06/27 05:23:37;;;;;;;1.95;1.50;;;19.70;99.90;;;;;;5057611;28;20183;-35
2022/06/27 05:26:04;;;;;;;2.95;1.25;;;19.80;99.90;;;;;;5068483;28;20177;-38
2022/06/27 05:28:30;;;;;;;1.95;1.45;;;19.80;99.90;;;;;;5058217;28;20197;-36
2022/06/27 05:30:56;;;;;;;2.28;1.73;;;19.70;99.90;;;;;;5057586;28;20237;-35
2022/06/27 05:33:25;;;;;;;2.22;1.40;;;19.80;99.90;;;;;;5058079;28;20184;-37
2022/06/27 05:35:52;;;;;;;2.95;1.70;;;19.70;99.90;;;;;;5057303;28;20212;-40
2022/06/27 05:38:18;;;;;;;4.63;2.05;;;19.80;99.90;;;;;;5057725;28;20176;-36
2022/06/27 05:40:45;;;;;;;4.93;1.45;;;19.80;99.90;;;;;;5056910;28;20181;-38
2022/06/27 05:43:15;;;;;;;1.95;1.17;;;19.90;99.90;;;;;;5075051;28;20180;-36
2022/06/27 05:45:42;;;;;;;2.30;1.40;;;19.80;99.90;;;;;;5057278;28;20177;-36
2022/06/27 05:48:26;;;;;;;2.83;1.48;;;19.90;99.90;;;;;;5057074;28;20184;-37
2022/06/27 05:51:10;;;;;;;2.58;1.75;;;19.80;99.90;;;;;;5061042;28;20254;-36
2022/06/27 05:53:38;;;;;;;2.38;1.77;;;19.80;99.90;;;;;;5074094;28;20188;-35
2022/06/27 05:56:06;;;;;;;4.68;1.80;;;19.80;99.90;;;;;;5073616;28;20218;-35
2022/06/27 05:58:33;;;;;;;3.60;1.73;;;19.80;99.90;;;;;;5074246;28;20192;-40
2022/06/27 06:01:02;;;;;;;3.90;1.85;;;19.80;99.90;;;;;;5073289;28;20183;-35
2022/06/27 06:03:30;;;;;;;1.98;1.50;;;19.80;99.90;;;;;;5073899;28;20179;-38
2022/06/27 06:05:56;;;;;;;3.50;1.58;;;19.90;99.90;;;;;;5072978;28;20188;-37
2022/06/27 06:08:23;;;;;;;1.95;1.40;;;20.00;99.90;;;;;;5073979;28;20177;-39
2022/06/27 06:10:50;;;;;;;2.70;1.40;;;20.00;99.90;;;;;;5057648;28;20186;-35
2022/06/27 06:13:19;;;;;;;1.40;1.30;;;20.00;99.90;;;;;;5073159;28;20176;-37
2022/06/27 06:15:45;;;;;;;3.45;1.42;;;20.00;99.90;;;;;;5059845;28;20200;-36
2022/06/27 06:18:12;;;;;;;1.70;1.25;;;20.10;99.90;;;;;;5055743;28;20588;-39
2022/06/27 06:20:43;;;;;;;2.28;1.30;;;20.20;99.90;;;;;;5073390;28;20183;-37
2022/06/27 06:23:09;;;;;;;4.05;1.40;;;20.20;99.90;;;;;;5073728;28;20168;-35
2022/06/27 06:25:41;;;;;;;2.45;1.38;;;20.20;99.90;;;;;;5073503;28;20177;-36
2022/06/27 06:28:08;;;;;;;3.20;1.27;;;20.30;99.90;;;;;;5073543;28;20176;-36
2022/06/27 06:30:36;;;;;;;3.35;1.40;;;20.40;99.90;;;;;;5073908;28;20187;-36
2022/06/27 06:33:08;;;;;;;1.17;1.10;;;20.60;99.90;;;;;;5073471;28;20176;-37
2022/06/27 06:35:36;;;;;;;3.38;1.13;;;20.70;99.90;;;;;;5073029;28;20212;-38
2022/06/27 06:38:05;;;;;;;3.08;1.30;;;20.80;99.90;;;;;;5056773;28;20191;-36
2022/06/27 06:40:31;;;;;;;1.38;1.17;;;21.00;99.90;;;;;;5056656;28;20192;-40
2022/06/27 06:43:01;;;;;;;2.72;1.17;;;21.20;99.90;;;;;;5072921;28;20181;-37
2022/06/27 06:45:50;;;;;;;2.38;1.20;;;21.40;99.90;;;;;;5070756;28;20672;-38
2022/06/27 06:48:25;;;;;;;2.25;1.00;;;21.60;99.90;;;;;;5057697;28;20180;-36
2022/06/27 06:50:54;;;;;;;3.33;1.20;;;21.70;99.90;;;;;;5056892;28;20180;-36
2022/06/27 06:53:21;;;;;;;2.28;0.90;;;21.80;99.90;;;;;;5056118;28;20184;-36
2022/06/27 06:55:48;;;;;;;1.20;1.10;;;22.00;99.90;;;;;;5056516;28;20220;-41
2022/06/27 06:58:14;;;;;;;1.55;1.10;;;22.30;99.90;;;;;;5057451;28;20233;-36
2022/06/27 07:00:40;;;;;;;3.00;1.00;;;22.50;99.90;;;;;;5058983;28;20187;-37
2022/06/27 07:03:07;;;;;;;0.95;0.80;;;22.70;99.90;;;;;;5056731;28;20185;-38
2022/06/27 07:05:34;;;;;;;2.60;0.75;;;22.90;99.90;;;;;;5056009;28;20181;-37
2022/06/27 07:08:01;;;;;;;1.83;0.60;;;22.90;99.90;;;;;;5073111;28;20254;-36
2022/06/27 07:10:28;;;;;;;0.68;0.68;;;23.00;99.90;;;;;;5073151;28;20235;-40
2022/06/27 07:12:54;;;;;;;0.70;0.70;;;23.00;99.90;;;;;;5073023;28;20188;-39
2022/06/27 07:15:20;;;;;;;2.38;0.88;;;22.90;99.90;;;;;;5056105;28;20208;-39
2022/06/27 07:17:49;;;;;;;1.02;0.73;;;23.00;99.90;;;;;;5056581;28;20248;-40
2022/06/27 07:20:18;;;;;;;1.30;0.90;;;23.10;99.90;;;;;;5072814;28;20204;-42
2022/06/27 07:22:46;;;;;;;1.45;0.90;;;23.20;99.90;;;;;;5072986;28;20185;-44
2022/06/27 07:25:12;;;;;;;1.35;0.88;;;23.20;99.90;;;;;;5072613;28;20179;-40
2022/06/27 07:27:39;;;;;;;2.15;0.90;;;23.10;99.90;;;;;;5055955;28;20176;-43
2022/06/27 07:30:09;;;;;;;0.70;0.70;;;23.00;99.90;;;;;;5054496;28;20211;-38
2022/06/27 07:32:39;;;;;;;2.25;0.80;;;22.90;99.90;;;;;;5071236;28;20203;-40
2022/06/27 07:35:09;;;;;;;1.25;0.82;;;23.00;99.90;;;;;;5040619;28;20208;-43
2022/06/27 07:37:45;;;;;;;1.13;0.70;;;22.90;99.90;;;;;;5074460;28;20183;-41
2022/06/27 07:40:12;;;;;;;2.53;0.90;;;22.80;99.90;;;;;;5076196;28;20253;-39
2022/06/27 07:42:40;;;;;;;1.98;0.80;;;22.70;99.90;;;;;;5069156;28;20177;-41
2022/06/27 07:45:08;;;;;;;3.10;0.90;;;22.70;99.90;;;;;;5070322;28;20212;-38
2022/06/27 07:47:35;;;;;;;0.70;0.70;;;22.70;99.90;;;;;;5069141;28;20242;-41
2022/06/27 08:09:48;;;;;;;2.10;0.90;;;23.00;99.90;;;;;;5059713;28;20285;-91
2022/06/27 08:12:35;;;;;;;1.73;0.90;;;23.20;99.90;;;;;;5047681;28;20220;-91
2022/06/27 08:15:02;;;;;;;0.85;0.85;;;23.00;99.90;;;;;;5025518;28;20202;-93
2022/06/27 08:17:29;;;;;;;0.80;0.80;;;23.00;99.90;;;;;;5036891;28;20185;-93
2022/06/27 08:19:55;;;;;;;0.90;0.90;;;23.00;99.90;;;;;;5035628;28;20177;-94
2022/06/27 08:22:24;;;;;;;0.80;0.70;;;23.00;99.90;;;;;;5056470;28;20205;-92
2022/06/27 08:24:51;;;;;;;2.05;1.00;;;22.90;99.90;;;;;;5034613;28;20189;-91
2022/06/27 08:27:20;;;;;;;1.73;1.00;;;22.90;99.90;;;;;;5025073;28;20244;-91
2022/06/27 08:29:46;;;;;;;1.00;0.90;;;22.90;99.90;;;;;;5052782;28;20177;-90
2022/06/27 08:32:12;;;;;;;2.55;1.00;;;22.90;99.90;;;;;;5055543;28;20205;-91
2022/06/27 08:34:39;;;;;;;1.48;1.02;;;22.90;99.90;;;;;;5056131;28;20266;-91
2022/06/27 08:37:06;;;;;;;1.33;0.90;;;23.00;99.90;;;;;;5055717;28;20179;-91
2022/06/27 08:39:32;;;;;;;1.35;0.90;;;23.00;99.90;;;;;;5055628;28;20199;-91
2022/06/27 08:41:58;;;;;;;2.13;0.90;;;23.30;99.90;;;;;;5057080;28;20246;-91
2022/06/27 08:44:29;;;;;;;2.05;0.80;;;23.50;99.90;;;;;;5059607;28;20208;-90
2022/06/27 08:46:55;;;;;;;1.42;1.00;;;23.70;99.90;;;;;;5059623;28;20168;-91
2022/06/27 08:49:22;;;;;;;1.85;1.00;;;23.80;99.90;;;;;;5059313;28;20181;-91
2022/06/27 08:51:48;;;;;;;2.28;1.00;;;23.90;99.90;;;;;;5059580;28;20277;-90
2022/06/27 08:54:14;;;;;;;2.90;1.15;;;23.90;99.90;;;;;;5059278;28;20311;-91
2022/06/27 08:56:40;;;;;;;0.93;0.70;;;23.90;99.90;;;;;;5060228;28;20176;-91
2022/06/27 08:59:06;;;;;;;1.13;0.90;;;23.70;99.90;;;;;;5060314;28;20203;-91
2022/06/27 09:01:32;;;;;;;1.77;0.75;;;23.70;99.90;;;;;;5060653;28;20197;-91
2022/06/27 09:04:06;;;;;;;1.45;0.90;;;23.70;99.90;;;;;;5060709;28;20207;-91
2022/06/27 09:06:51;;;;;;;0.80;0.80;;;23.80;99.90;;;;;;5060119;28;20268;-91
2022/06/27 09:09:18;;;;;;;0.98;0.88;;;23.90;99.90;;;;;;5060326;28;20177;-91
2022/06/27 09:11:46;;;;;;;2.95;1.00;;;24.00;99.90;;;;;;5058950;28;20283;-91
2022/06/27 09:14:41;;;;;;;1.35;0.90;;;24.30;99.90;;;;;;5058757;28;20235;-91
2022/06/27 09:17:16;;;;;;;1.00;0.90;;;24.50;99.90;;;;;;5053263;28;20221;-91
2022/06/27 09:19:54;;;;;;;1.58;0.70;;;24.50;99.90;;;;;;5058854;28;20181;-91
2022/06/27 09:22:23;;;;;;;1.88;0.90;;;24.60;99.90;;;;;;5058841;28;20236;-91
2022/06/27 09:25:09;;;;;;;3.53;1.00;;;24.50;99.90;;;;;;5058556;28;20185;-91
2022/06/27 09:27:44;;;;;;;2.53;0.90;;;24.60;99.90;;;;;;5058410;28;20173;-91
2022/06/27 09:30:22;;;;;;;2.42;1.00;;;24.60;99.90;;;;;;5058541;28;20179;-91
2022/06/27 09:32:50;;;;;;;0.85;0.85;;;24.50;99.90;;;;;;5087944;28;20167;-90
2022/06/27 09:35:39;;;;;;;1.33;0.90;;;24.50;99.90;;;;;;5066794;28;20278;-91
2022/06/27 09:38:07;;;;;;;3.47;1.00;;;24.70;99.90;;;;;;5058887;28;20177;-91
2022/06/27 09:40:35;;;;;;;0.80;0.80;;;24.90;99.90;;;;;;5058239;28;20177;-90
2022/06/27 09:43:03;;;;;;;1.38;1.00;;;24.90;99.90;;;;;;5074932;28;20177;-91
2022/06/27 09:45:31;;;;;;;1.00;0.90;;;25.00;99.90;;;;;;5058195;28;20267;-91
2022/06/27 09:48:05;;;;;;;1.08;0.95;;;25.20;99.90;;;;;;5058135;28;20238;-91
2022/06/27 09:50:37;;;;;;;5.05;1.60;;;25.60;99.90;;;;;;5047782;28;20169;-91
2022/06/27 09:53:04;;;;;;;2.90;1.10;;;25.90;99.90;;;;;;5032357;28;20181;-91
2022/06/27 09:55:30;;;;;;;3.47;1.10;;;26.20;99.90;;;;;;5036985;28;20223;-91
2022/06/27 09:57:57;;;;;;;1.63;1.20;;;26.40;99.90;;;;;;5038041;28;20177;-91
2022/06/27 10:00:25;;;;;;;1.42;1.02;;;26.40;99.90;;;;;;5036235;28;20182;-91
2022/06/27 10:02:53;;;;;;;1.05;1.00;;;26.30;99.90;;;;;;5051095;28;20174;-91
2022/06/27 10:05:21;;;;;;;3.05;1.20;;;26.40;99.90;;;;;;5029141;28;20185;-91
2022/06/27 10:07:58;;;;;;;1.33;1.00;;;26.30;99.90;;;;;;5043835;28;20181;-91
2022/06/27 10:11:10;;;;;;;1.48;0.90;;;26.30;99.90;;;;;;5035255;28;20220;-91
2022/06/27 10:13:38;;;;;;;2.03;1.00;;;25.90;99.90;;;;;;5012137;28;20204;-91
2022/06/27 10:16:15;;;;;;;1.20;1.10;;;25.40;99.90;;;;;;5037821;28;20209;-91
2022/06/27 10:18:59;;;;;;;1.42;1.23;;;25.50;99.90;;;;;;5037244;28;20181;-91
2022/06/27 10:21:51;;;;;;;1.30;1.20;;;25.30;99.90;;;;;;5053825;28;20193;-91
2022/06/27 10:24:21;;;;;;;3.30;1.08;;;25.10;99.90;;;;;;5054205;28;20185;-91
2022/06/27 10:27:02;;;;;;;1.20;1.10;;;25.20;99.90;;;;;;5037318;28;20185;-91
2022/06/27 10:29:45;;;;;;;1.95;1.20;;;25.20;99.90;;;;;;5056349;28;20173;-91
2022/06/27 10:32:44;;;;;;;3.45;1.20;;;25.30;99.90;;;;;;5034559;28;20230;-91
2022/06/27 10:35:11;;;;;;;1.63;1.08;;;25.40;99.90;;;;;;5035809;28;20220;-91
2022/06/27 10:37:40;;;;;;;2.35;1.20;;;25.40;99.90;;;;;;5055577;28;20216;-91
2022/06/27 10:40:22;;;;;;;3.30;1.00;;;25.40;99.90;;;;;;5027176;28;20289;-91
2022/06/27 10:42:55;;;;;;;1.40;1.17;;;25.40;99.90;;;;;;5028163;28;20208;-92
2022/06/27 10:45:21;;;;;;;2.55;1.02;;;25.20;99.90;;;;;;5039240;28;20166;-93
2022/06/27 10:47:52;;;;;;;1.25;0.90;;;25.40;99.90;;;;;;5040271;28;20189;-93
2022/06/27 10:50:20;;;;;;;1.73;1.00;;;25.40;99.90;;;;;;5040307;28;20185;-93
2022/06/27 10:52:47;;;;;;;1.88;1.30;;;25.60;99.90;;;;;;5030864;28;20181;-91
2022/06/27 10:55:23;;;;;;;1.70;1.00;;;25.70;99.90;;;;;;5028308;28;20207;-91
2022/06/27 10:57:51;;;;;;;1.65;1.02;;;25.80;99.90;;;;;;5035535;28;20177;-91
2022/06/27 11:00:40;;;;;;;1.75;1.10;;;26.00;99.90;;;;;;5039389;28;20173;-91
2022/06/27 11:03:08;;;;;;;1.70;1.10;;;26.00;99.90;;;;;;5039228;28;20173;-91
2022/06/27 11:05:58;;;;;;;1.63;1.13;;;26.10;99.90;;;;;;5038919;28;20216;-91
2022/06/27 11:08:25;;;;;;;1.33;1.20;;;26.50;99.90;;;;;;5039193;28;20184;-91
2022/06/27 11:10:51;;;;;;;1.23;1.13;;;26.50;99.90;;;;;;5038948;28;20203;-91
2022/06/27 11:13:38;;;;;;;1.40;1.23;;;26.10;99.90;;;;;;5038455;28;20197;-91
2022/06/27 11:16:06;;;;;;;1.60;1.08;;;25.90;99.90;;;;;;5039100;28;20283;-91
2022/06/27 11:18:43;;;;;;;1.30;1.20;;;25.70;99.90;;;;;;5038796;28;20185;-91
2022/06/27 11:21:11;;;;;;;2.28;1.20;;;25.80;99.90;;;;;;5040035;28;20197;-92
2022/06/27 11:23:53;;;;;;;2.08;1.10;;;26.00;99.90;;;;;;5038792;28;20264;-91
2022/06/27 11:26:21;;;;;;;1.30;1.20;;;26.40;99.90;;;;;;5039080;28;20192;-91
2022/06/27 11:34:16;;;;;;;2.03;1.30;;;26.40;99.90;;;;;;5035573;28;20281;-91
2022/06/27 11:36:42;;;;;;;1.77;1.10;;;26.30;99.90;;;;;;5053680;28;20191;-91
2022/06/27 11:39:08;;;;;;;4.15;1.38;;;26.00;99.90;;;;;;5036482;28;20684;-88
2022/06/27 11:41:41;;;;;;;1.13;1.05;;;25.80;99.90;;;;;;5035152;28;20318;-91
2022/06/27 11:44:10;;;;;;;2.97;1.30;;;25.80;99.90;;;;;;5036083;28;20264;-91
2022/06/27 11:46:51;;;;;;;1.20;1.10;;;25.90;99.90;;;;;;5036421;28;20181;-91
2022/06/27 11:49:28;;;;;;;1.50;1.20;;;25.80;99.90;;;;;;5037151;28;20173;-92
2022/06/27 11:52:02;;;;;;;1.30;1.20;;;25.50;99.90;;;;;;5036718;28;20724;-91
2022/06/27 11:54:49;;;;;;;1.45;1.20;;;25.20;99.90;;;;;;5036914;28;20307;-92
2022/06/27 11:57:23;;;;;;;1.25;1.00;;;24.90;99.90;;;;;;5037545;28;20660;-91
2022/06/27 11:59:51;;;;;;;1.77;1.13;;;24.80;99.90;;;;;;5039238;28;20306;-92
2022/06/27 12:02:28;;;;;;;1.42;1.20;;;24.70;99.90;;;;;;5038839;28;20193;-91
2022/06/27 12:05:08;;;;;;;2.38;1.10;;;24.60;99.90;;;;;;5038768;28;20263;-91
2022/06/27 12:07:58;;;;;;;1.20;1.10;;;24.40;99.90;;;;;;5039043;28;20219;-91
2022/06/27 12:13:38;;;;;;;1.30;1.10;;;24.40;99.90;;;;;;5055713;28;20215;-91
2022/06/27 12:16:06;;;;;;;1.85;1.30;;;24.30;99.90;;;;;;5038878;28;20209;-91
2022/06/27 12:18:35;;;;;;;1.52;1.33;;;24.30;99.90;;;;;;5042395;28;20173;-91
2022/06/27 12:21:01;;;;;;;3.33;1.48;;;24.30;99.90;;;;;;5042271;28;20197;-91
2022/06/27 12:23:27;;;;;;;1.27;1.10;;;24.10;99.90;;;;;;5042371;28;20178;-91
2022/06/27 12:25:53;;;;;;;1.85;1.10;;;24.10;99.90;;;;;;5042519;28;20177;-91
2022/06/27 12:28:20;;;;;;;2.08;1.02;;;24.00;99.90;;;;;;5042107;28;20192;-91
2022/06/27 12:30:46;;;;;;;1.20;1.10;;;24.10;99.90;;;;;;5042069;28;20216;-91
2022/06/27 12:33:12;;;;;;;1.20;1.10;;;24.20;99.90;;;;;;5042034;28;20181;-91
2022/06/27 12:35:39;;;;;;;1.48;1.10;;;24.30;99.90;;;;;;5042118;28;20244;-91
2022/06/27 12:38:07;;;;;;;2.00;1.10;;;24.30;99.90;;;;;;5042202;28;20173;-92
2022/06/27 12:40:33;;;;;;;2.47;1.30;;;24.30;99.90;;;;;;5042399;28;20208;-91
2022/06/27 12:42:59;;;;;;;2.30;1.10;;;24.50;99.90;;;;;;5042395;28;20173;-91
2022/06/27 12:45:25;;;;;;;1.05;1.00;;;24.50;99.90;;;;;;5042000;28;20177;-91
2022/06/27 12:47:51;;;;;;;1.63;1.20;;;24.60;99.90;;;;;;5041660;28;20254;-91
2022/06/27 12:50:18;;;;;;;1.10;1.00;;;24.70;99.90;;;;;;5042016;28;20259;-91
2022/06/27 12:52:44;;;;;;;2.58;1.33;;;24.70;99.90;;;;;;5042349;28;20203;-91
2022/06/27 12:55:11;;;;;;;1.33;1.08;;;24.70;99.90;;;;;;5043473;28;20197;-91
2022/06/27 12:57:42;;;;;;;1.13;1.00;;;24.80;99.90;;;;;;5041812;28;20181;-91
2022/06/27 13:00:09;;;;;;;1.00;0.90;;;24.70;99.90;;;;;;5041042;28;20185;-91
2022/06/27 13:02:35;;;;;;;1.17;1.10;;;24.60;99.90;;;;;;5040412;28;20192;-91
2022/06/27 13:05:02;;;;;;;1.17;1.02;;;24.70;99.90;;;;;;5042081;28;20239;-90
2022/06/27 13:07:29;;;;;;;2.53;1.10;;;24.60;99.90;;;;;;5036817;28;20181;-91
2022/06/27 13:10:01;;;;;;;1.30;1.20;;;24.60;99.90;;;;;;5027082;28;20170;-90
2022/06/27 13:12:39;;;;;;;2.05;1.13;;;24.50;99.90;;;;;;5056994;28;20350;-91
2022/06/27 13:15:07;;;;;;;4.65;1.52;;;24.50;99.90;;;;;;5048743;28;20236;-91
2022/06/27 13:17:41;;;;;;;1.55;1.13;;;24.50;99.90;;;;;;5042330;28;20256;-91
2022/06/27 13:20:12;;;;;;;3.70;1.50;;;24.50;99.90;;;;;;5053490;28;20196;-90
2022/06/27 13:22:38;;;;;;;8.57;2.10;;;24.40;99.90;;;;;;5035897;28;20205;-90
2022/06/27 13:25:13;;;;;;;4.53;1.55;;;24.40;99.90;;;;;;5036906;28;20184;-85
2022/06/27 13:27:45;;;;;;;1.70;0.93;;;24.30;99.90;;;;;;5055749;28;20275;-92
2022/06/27 13:30:15;;;;;;;1.30;1.00;;;24.30;99.90;;;;;;5034845;28;20181;-92
2022/06/27 13:32:45;;;;;;;4.00;1.35;;;24.30;99.90;;;;;;5020916;28;20198;-87
2022/06/27 13:35:11;;;;;;;3.88;1.38;;;24.20;99.90;;;;;;5026593;28;20201;-90